createdAt,value
2019-01-18T00:02:24.519Z,82.26
2019-01-18T00:04:56.556Z,81.89
2019-01-18T00:07:28.558Z,81.91
2019-01-18T00:10:00.593Z,82.23
2019-01-18T00:12:32.597Z,82.13
2019-01-18T00:15:06.003Z,82.24
2019-01-18T00:17:37.979Z,81.68
2019-01-18T00:20:10.188Z,81.97
2019-01-18T00:22:42.185Z,82.15
2019-01-18T00:25:14.174Z,82.06
2019-01-18T00:27:46.156Z,82.09
2019-01-18T00:30:18.193Z,82.28
2019-01-18T00:32:50.269Z,82.03
2019-01-18T00:35:22.274Z,81.75
2019-01-18T00:37:54.215Z,81.83
2019-01-18T00:40:26.221Z,81.88
2019-01-18T00:42:58.183Z,81.93
2019-01-18T00:45:30.178Z,81.89
2019-01-18T00:48:02.139Z,81.62
2019-01-18T00:50:36.184Z,81.81
2019-01-18T00:53:08.142Z,81.84
2019-01-18T00:55:40.209Z,81.87
2019-01-18T00:58:12.186Z,81.56
2019-01-18T01:00:44.161Z,81.39
2019-01-18T01:03:16.140Z,81.86
2019-01-18T01:05:48.126Z,82.48
2019-01-18T01:08:20.106Z,82.40
2019-01-18T01:10:52.064Z,82.48
2019-01-18T01:16:02.791Z,82.35
2019-01-18T01:18:34.788Z,81.69
2019-01-18T01:21:06.752Z,81.08
2019-01-18T01:23:38.730Z,81.17
2019-01-18T01:26:10.685Z,81.21
2019-01-18T01:28:42.653Z,81.32
2019-01-18T01:31:14.617Z,81.10
2019-01-18T01:33:46.607Z,80.64
2019-01-18T01:36:18.566Z,80.17
2019-01-18T01:38:50.542Z,79.89
2019-01-18T01:41:22.524Z,79.36
2019-01-18T01:43:54.515Z,79.52
2019-01-18T01:46:46.027Z,79.99
2019-01-18T01:49:18.009Z,79.81
2019-01-18T01:51:49.966Z,79.83
2019-01-18T01:54:21.971Z,79.58
2019-01-18T01:56:53.953Z,79.92
2019-01-18T01:59:25.942Z,79.93
2019-01-18T02:01:57.948Z,79.70
2019-01-18T02:04:29.943Z,79.24
2019-01-18T02:07:01.892Z,78.81
2019-01-18T02:09:33.888Z,78.78
2019-01-18T02:12:05.847Z,78.69
2019-01-18T02:14:37.920Z,78.50
2019-01-18T02:17:09.873Z,78.31
2019-01-18T02:19:41.946Z,77.44
2019-01-18T02:22:13.920Z,77.96
2019-01-18T02:24:45.904Z,77.19
2019-01-18T02:27:17.867Z,75.72
2019-01-18T02:29:56.369Z,75.93
2019-01-18T02:32:23.767Z,76.67
2019-01-18T02:34:55.743Z,76.59
2019-01-18T02:37:27.680Z,76.37
2019-01-18T02:39:59.666Z,76.87
2019-01-18T02:42:31.705Z,75.82
2019-01-18T02:45:45.243Z,76.33
2019-01-18T02:48:17.170Z,76.47
2019-01-18T02:53:29.163Z,76.69
2019-01-18T02:56:01.158Z,76.67
2019-01-18T02:58:33.116Z,77.04
2019-01-18T03:01:05.100Z,76.81
2019-01-18T03:03:37.074Z,76.74
2019-01-18T03:06:09.053Z,76.13
2019-01-18T03:08:41.009Z,76.61
2019-01-18T03:11:13.015Z,76.36
2019-01-18T03:13:45.000Z,77.41
2019-01-18T03:16:16.966Z,77.55
2019-01-18T03:18:48.939Z,77.44
2019-01-18T03:21:20.885Z,76.95
2019-01-18T03:23:52.859Z,76.87
2019-01-18T03:26:24.807Z,77.26
2019-01-18T03:28:56.790Z,77.33
2019-01-18T03:31:28.744Z,77.67
2019-01-18T03:34:00.716Z,77.98
2019-01-18T03:36:32.659Z,77.83
2019-01-18T03:39:08.816Z,77.10
2019-01-18T03:41:40.773Z,76.45
2019-01-18T03:44:12.746Z,76.04
2019-01-18T03:46:44.816Z,75.71
2019-01-18T03:49:16.792Z,75.69
2019-01-18T03:51:48.745Z,75.95
2019-01-18T03:54:20.746Z,76.03
2019-01-18T03:56:52.697Z,75.91
2019-01-18T03:59:24.694Z,76.19
2019-01-18T04:01:56.648Z,75.98
2019-01-18T04:04:28.635Z,76.33
2019-01-18T04:07:00.593Z,76.22
2019-01-18T04:09:32.596Z,76.20
2019-01-18T04:12:04.562Z,74.99
2019-01-18T04:14:36.548Z,74.24
2019-01-18T04:17:08.503Z,74.77
2019-01-18T04:19:40.492Z,74.04
2019-01-18T04:22:12.454Z,73.00
2019-01-18T04:24:44.435Z,72.68
2019-01-18T04:27:16.385Z,73.72
2019-01-18T04:29:48.364Z,73.90
2019-01-18T04:32:20.323Z,74.06
2019-01-18T04:34:52.306Z,74.61
2019-01-18T04:37:24.269Z,74.57
2019-01-18T04:39:56.278Z,74.30
2019-01-18T04:42:28.242Z,75.06
2019-01-18T04:45:00.263Z,75.54
2019-01-18T04:47:32.180Z,75.48
2019-01-18T04:50:05.533Z,75.70
2019-01-18T04:52:37.490Z,74.74
2019-01-18T04:55:09.486Z,74.01
2019-01-18T04:57:41.441Z,73.96
2019-01-18T05:00:16.454Z,74.16
2019-01-18T05:02:48.448Z,74.62
2019-01-18T05:05:20.389Z,74.94
2019-01-18T05:07:52.386Z,74.70
2019-01-18T05:10:26.001Z,75.10
2019-01-18T05:12:58.374Z,75.24
2019-01-18T05:15:31.568Z,75.31
2019-01-18T05:18:03.559Z,75.74
2019-01-18T05:20:35.620Z,76.32
2019-01-18T05:23:07.620Z,76.03
2019-01-18T05:25:39.589Z,75.98
2019-01-18T05:28:11.581Z,76.19
2019-01-18T05:30:47.512Z,76.06
2019-01-18T05:33:17.433Z,76.12
2019-01-18T05:35:49.387Z,75.92
2019-01-18T05:38:21.390Z,75.80
2019-01-18T05:40:53.395Z,75.90
2019-01-18T05:43:25.392Z,76.25
2019-01-18T05:45:57.358Z,76.64
2019-01-18T05:48:29.369Z,76.38
2019-01-18T05:51:01.319Z,76.03
2019-01-18T05:53:33.304Z,76.18
2019-01-18T05:56:05.320Z,76.19
2019-01-18T05:58:37.282Z,76.60
2019-01-18T06:01:11.059Z,77.24
2019-01-18T06:03:43.053Z,77.02
2019-01-18T06:06:15.005Z,76.53
2019-01-18T06:08:47.035Z,76.77
2019-01-18T06:11:19.074Z,76.98
2019-01-18T06:13:51.087Z,76.69
2019-01-18T06:16:23.200Z,76.59
2019-01-18T06:18:55.190Z,76.94
2019-01-18T06:21:27.164Z,76.55
2019-01-18T06:23:59.191Z,76.68
2019-01-18T06:26:31.144Z,76.81
2019-01-18T06:29:03.118Z,76.61
2019-01-18T06:31:35.103Z,76.04
2019-01-18T06:34:07.067Z,76.61
2019-01-18T06:36:39.041Z,76.42
2019-01-18T06:39:11.027Z,76.36
2019-01-18T06:42:02.568Z,76.12
2019-01-18T06:44:34.550Z,76.74
2019-01-18T06:47:06.506Z,76.00
2019-01-18T06:49:38.475Z,76.24
2019-01-18T06:52:10.434Z,76.33
2019-01-18T06:54:42.448Z,76.15
2019-01-18T06:57:14.399Z,76.30
2019-01-18T06:59:46.380Z,76.39
2019-01-18T07:02:18.355Z,76.62
2019-01-18T07:04:50.374Z,76.99
2019-01-18T07:07:22.356Z,76.78
2019-01-18T07:09:54.334Z,76.81
2019-01-18T07:12:26.286Z,77.06
2019-01-18T07:14:58.284Z,77.37
2019-01-18T07:17:30.265Z,77.66
2019-01-18T07:20:02.361Z,77.54
2019-01-18T07:22:34.338Z,77.62
2019-01-18T07:25:09.656Z,77.55
2019-01-18T07:27:41.620Z,77.70
2019-01-18T07:30:34.330Z,77.91
2019-01-18T07:33:25.762Z,77.82
2019-01-18T07:36:00.516Z,77.88
2019-01-18T07:38:32.512Z,77.25
2019-01-18T07:41:04.490Z,77.29
2019-01-18T07:43:36.502Z,77.40
2019-01-18T07:46:08.459Z,77.93
2019-01-18T07:48:40.487Z,78.02
2019-01-18T07:51:12.500Z,78.14
2019-01-18T07:53:44.475Z,78.19
2019-01-18T07:56:16.491Z,78.21
2019-01-18T07:58:48.453Z,78.29
2019-01-18T08:01:22.151Z,78.36
2019-01-18T08:03:54.352Z,78.34
2019-01-18T08:06:26.361Z,78.46
2019-01-18T08:08:58.344Z,78.26
2019-01-18T08:11:30.463Z,77.71
2019-01-18T08:14:02.521Z,77.52
2019-01-18T08:16:34.540Z,77.52
2019-01-18T08:19:06.568Z,77.61
2019-01-18T08:21:38.559Z,77.96
2019-01-18T08:24:10.611Z,77.94
2019-01-18T08:26:50.032Z,78.18
2019-01-18T08:29:22.033Z,78.45
2019-01-18T08:31:54.046Z,77.91
2019-01-18T08:34:26.077Z,77.77
2019-01-18T08:36:58.076Z,78.03
2019-01-18T08:39:30.073Z,78.07
2019-01-18T08:42:02.066Z,76.71
2019-01-18T08:44:34.078Z,76.91
2019-01-18T08:47:06.080Z,76.93
2019-01-18T08:49:38.100Z,77.67
2019-01-18T08:52:10.091Z,78.33
2019-01-18T08:54:42.151Z,79.14
2019-01-18T08:57:14.165Z,78.84
2019-01-18T08:59:47.483Z,78.56
2019-01-18T09:02:20.071Z,78.36
2019-01-18T09:04:52.090Z,78.88
2019-01-18T09:07:24.118Z,79.23
2019-01-18T09:09:56.134Z,79.07
2019-01-18T09:12:28.114Z,78.34
2019-01-18T09:15:00.231Z,78.23
2019-01-18T09:17:32.182Z,77.84
2019-01-18T09:20:06.533Z,76.32
2019-01-18T09:22:38.488Z,76.79
2019-01-18T09:25:10.508Z,75.44
2019-01-18T09:27:42.459Z,75.82
2019-01-18T09:30:16.724Z,74.98
2019-01-18T09:32:49.286Z,75.17
2019-01-18T09:35:22.413Z,74.24
2019-01-18T09:37:55.887Z,72.91
2019-01-18T09:40:31.645Z,73.39
2019-01-18T09:43:03.999Z,74.04
2019-01-18T09:45:35.990Z,73.11
2019-01-18T09:48:09.251Z,72.37
2019-01-18T09:50:41.209Z,72.90
2019-01-18T09:53:13.181Z,72.76
2019-01-18T09:55:45.206Z,73.44
2019-01-18T09:58:17.179Z,74.08
2019-01-18T10:00:49.197Z,73.55
2019-01-18T10:03:21.161Z,73.13
2019-01-18T10:05:53.183Z,73.07
2019-01-18T10:08:25.170Z,72.36
2019-01-18T10:10:57.179Z,72.43
2019-01-18T10:13:29.130Z,72.44
2019-01-18T10:16:01.136Z,72.93
2019-01-18T10:18:33.112Z,72.93
2019-01-18T10:21:05.115Z,72.75
2019-01-18T10:23:37.105Z,72.70
2019-01-18T10:26:09.086Z,71.97
2019-01-18T10:28:41.091Z,72.99
2019-01-18T10:31:13.042Z,72.12
2019-01-18T10:33:45.063Z,73.05
2019-01-18T10:36:17.055Z,73.27
2019-01-18T10:38:49.056Z,72.92
2019-01-18T10:41:21.084Z,72.38
2019-01-18T10:43:53.079Z,72.49
2019-01-18T10:46:25.053Z,72.83
2019-01-18T10:48:57.043Z,71.49
2019-01-18T10:51:29.067Z,71.76
2019-01-18T10:54:01.069Z,71.87
2019-01-18T10:56:33.084Z,70.48
2019-01-18T10:59:05.084Z,70.63
2019-01-18T11:01:37.068Z,70.62
2019-01-18T11:04:09.075Z,69.44
2019-01-18T11:06:41.090Z,69.56
2019-01-18T11:09:13.089Z,71.13
2019-01-18T11:11:45.072Z,71.58
2019-01-18T11:14:17.067Z,70.79
2019-01-18T11:16:49.034Z,69.70
2019-01-18T11:19:21.074Z,70.41
2019-01-18T11:21:53.378Z,70.37
2019-01-18T11:24:25.737Z,70.12
2019-01-18T11:26:57.719Z,70.36
2019-01-18T11:29:29.693Z,70.37
2019-01-18T11:32:01.662Z,70.26
2019-01-18T11:34:33.790Z,69.22
2019-01-18T11:37:05.802Z,69.42
2019-01-18T11:39:37.801Z,69.62
2019-01-18T11:42:09.803Z,69.61
2019-01-18T11:44:41.780Z,69.95
2019-01-18T11:47:13.764Z,69.77
2019-01-18T11:49:45.781Z,69.45
2019-01-18T11:52:17.760Z,68.71
2019-01-18T11:54:49.804Z,69.42
2019-01-18T11:57:21.816Z,68.98
2019-01-18T11:59:53.810Z,68.60
2019-01-18T12:02:25.823Z,66.49
2019-01-18T12:04:57.847Z,65.54
2019-01-18T12:07:29.873Z,65.91
2019-01-18T12:10:01.895Z,66.84
2019-01-18T12:12:33.849Z,66.11
2019-01-18T12:15:07.144Z,64.49
2019-01-18T12:17:39.244Z,65.39
2019-01-18T12:20:14.274Z,65.24
2019-01-18T12:22:46.257Z,64.70
2019-01-18T12:25:18.317Z,62.91
2019-01-18T12:27:50.345Z,63.10
2019-01-18T12:30:25.285Z,61.70
2019-01-18T12:32:57.307Z,62.01
2019-01-18T12:35:29.322Z,62.32
2019-01-18T12:38:01.310Z,61.32
2019-01-18T12:40:33.418Z,61.95
2019-01-18T12:43:05.429Z,60.83
2019-01-18T12:45:37.395Z,60.52
2019-01-18T12:48:09.383Z,60.13
2019-01-18T12:50:41.409Z,60.89
2019-01-18T12:53:13.427Z,61.63
2019-01-18T12:55:45.439Z,60.99
2019-01-18T12:58:17.465Z,61.10
2019-01-18T13:00:49.463Z,60.54
2019-01-18T13:03:21.463Z,60.73
2019-01-18T13:05:54.078Z,60.67
2019-01-18T13:08:26.384Z,60.46
2019-01-18T13:10:58.368Z,60.49
2019-01-18T13:13:30.364Z,61.07
2019-01-18T13:16:32.064Z,60.76
2019-01-18T13:19:10.089Z,61.03
2019-01-18T13:21:42.094Z,61.92
2019-01-18T13:24:14.205Z,62.91
2019-01-18T13:26:46.203Z,63.64
2019-01-18T13:29:18.166Z,63.23
2019-01-18T13:31:50.186Z,62.45
2019-01-18T13:34:22.182Z,62.81
2019-01-18T13:36:54.179Z,63.27
2019-01-18T13:39:26.179Z,63.83
2019-01-18T13:41:58.152Z,63.15
2019-01-18T13:44:30.176Z,63.36
2019-01-18T13:47:02.186Z,62.55
2019-01-18T13:49:34.212Z,63.54
2019-01-18T13:52:06.247Z,63.15
2019-01-18T13:54:38.266Z,63.39
2019-01-18T13:57:12.306Z,63.17
2019-01-18T13:59:44.158Z,62.63
2019-01-18T14:02:16.139Z,61.99
2019-01-18T14:04:48.163Z,61.31
2019-01-18T14:07:20.260Z,60.83
2019-01-18T14:09:52.289Z,60.04
2019-01-18T14:12:24.283Z,60.54
2019-01-18T14:14:56.326Z,60.78
2019-01-18T14:17:28.455Z,60.32
2019-01-18T14:20:00.554Z,58.12
2019-01-18T14:22:32.589Z,59.88
2019-01-18T14:25:04.922Z,61.45
2019-01-18T14:27:36.960Z,60.45
2019-01-18T14:30:12.751Z,60.73
2019-01-18T14:32:44.780Z,61.51
2019-01-18T14:35:16.760Z,61.92
2019-01-18T14:37:48.895Z,61.74
2019-01-18T14:40:21.003Z,61.89
2019-01-18T14:42:53.042Z,61.79
2019-01-18T14:45:36.472Z,62.03
2019-01-18T14:48:08.515Z,62.50
2019-01-18T14:50:40.516Z,62.07
2019-01-18T14:53:12.557Z,61.55
2019-01-18T14:55:44.653Z,61.89
2019-01-18T14:58:16.683Z,61.45
2019-01-18T15:00:48.705Z,61.87
2019-01-18T15:03:20.845Z,61.69
2019-01-18T15:05:52.844Z,61.74
2019-01-18T15:08:24.872Z,62.32
2019-01-18T15:10:56.964Z,62.21
2019-01-18T15:13:29.090Z,61.79
2019-01-18T15:16:01.159Z,62.16
2019-01-18T15:18:34.501Z,62.84
2019-01-18T15:21:06.538Z,62.29
2019-01-18T15:23:38.581Z,60.15
2019-01-18T15:26:10.611Z,59.34
2019-01-18T15:28:42.649Z,59.23
2019-01-18T15:31:14.705Z,58.91
2019-01-18T15:33:46.772Z,59.70
2019-01-18T15:36:18.773Z,60.08
2019-01-18T15:38:50.809Z,58.89
2019-01-18T15:41:22.820Z,59.26
2019-01-18T15:43:54.867Z,59.95
2019-01-18T15:46:26.984Z,60.44
2019-01-18T15:48:59.052Z,61.13
2019-01-18T15:51:31.060Z,60.98
2019-01-18T15:54:03.422Z,61.30
2019-01-18T15:56:35.430Z,61.90
2019-01-18T15:59:07.480Z,62.50
2019-01-18T16:01:39.502Z,63.31
2019-01-18T16:04:11.503Z,63.95
2019-01-18T16:06:43.512Z,64.59
2019-01-18T16:09:15.559Z,65.50
2019-01-18T16:11:47.581Z,65.84
2019-01-18T16:14:19.631Z,66.50
2019-01-18T16:16:59.047Z,67.05
2019-01-18T16:19:31.071Z,67.38
2019-01-18T16:22:03.200Z,67.25
2019-01-18T16:24:35.228Z,67.65
2019-01-18T16:27:07.277Z,67.71
2019-01-18T16:29:39.410Z,68.13
2019-01-18T16:32:11.416Z,68.09
2019-01-18T16:34:43.507Z,68.47
2019-01-18T16:37:15.563Z,68.60
2019-01-18T16:39:47.602Z,69.19
2019-01-18T16:42:20.757Z,69.34
2019-01-18T16:44:53.434Z,69.92
2019-01-18T16:47:25.480Z,70.68
2019-01-18T16:49:57.558Z,71.18
2019-01-18T16:52:29.588Z,71.65
2019-01-18T16:55:01.681Z,71.93
2019-01-18T16:57:33.710Z,72.02
2019-01-18T17:00:14.337Z,72.11
2019-01-18T17:02:46.371Z,72.48
2019-01-18T17:05:18.430Z,73.00
2019-01-18T17:07:50.498Z,73.46
2019-01-18T17:10:22.544Z,73.64
2019-01-18T17:12:54.572Z,73.83
2019-01-18T17:15:26.607Z,74.21
2019-01-18T17:17:58.668Z,74.13
2019-01-18T17:20:32.524Z,74.18
2019-01-18T17:23:04.566Z,74.07
2019-01-18T17:25:36.605Z,74.18
2019-01-18T17:28:08.794Z,73.95
2019-01-18T17:30:40.824Z,74.29
2019-01-18T17:33:12.876Z,74.57
2019-01-18T17:35:59.049Z,74.89
2019-01-18T17:39:06.130Z,75.15
2019-01-18T17:42:35.065Z,75.34
2019-01-18T17:45:37.381Z,75.57
2019-01-18T17:48:35.046Z,76.33
2019-01-18T17:51:32.103Z,76.69
2019-01-18T17:54:50.992Z,76.84
2019-01-18T17:58:15.749Z,77.49
2019-01-18T18:01:50.771Z,77.73
2019-01-18T18:05:13.389Z,77.76
2019-01-18T18:08:11.214Z,78.84
2019-01-18T18:11:39.950Z,78.66
2019-01-18T18:14:54.000Z,78.79
2019-01-18T18:18:10.940Z,78.83
2019-01-18T18:21:09.087Z,78.64
2019-01-18T18:24:13.171Z,79.10
2019-01-18T18:27:45.023Z,79.33
2019-01-18T18:30:24.517Z,78.80
2019-01-18T18:33:43.292Z,79.15
2019-01-18T18:36:51.464Z,79.36
2019-01-18T18:39:52.454Z,79.34
2019-01-18T18:43:08.571Z,79.33
2019-01-18T18:46:30.767Z,79.12
2019-01-18T18:49:31.610Z,79.12
2019-01-18T18:52:38.784Z,78.89
2019-01-18T18:55:55.613Z,79.25
2019-01-18T18:59:21.044Z,79.41
2019-01-18T19:02:19.362Z,79.72
2019-01-18T19:05:28.956Z,79.68
2019-01-18T19:08:46.210Z,79.90
2019-01-18T19:11:46.501Z,80.04
2019-01-18T19:14:47.603Z,79.38
2019-01-18T19:18:00.538Z,79.77
2019-01-18T19:20:58.252Z,79.86
2019-01-18T19:23:56.547Z,79.71
2019-01-18T19:27:15.609Z,79.72
2019-01-18T19:30:09.431Z,79.74
2019-01-18T19:33:15.096Z,79.50
2019-01-18T19:36:34.005Z,79.51
2019-01-18T19:39:33.001Z,79.62
2019-01-18T19:42:37.128Z,79.87
2019-01-18T19:45:39.518Z,80.37
2019-01-18T19:48:34.577Z,80.99
2019-01-18T19:51:51.439Z,81.07
2019-01-18T19:54:37.077Z,81.37
2019-01-18T19:57:27.630Z,81.60
2019-01-18T20:00:32.027Z,81.50
2019-01-18T20:03:43.060Z,81.66
2019-01-18T20:06:42.329Z,81.62
2019-01-18T20:09:28.611Z,81.60
2019-01-18T20:12:51.195Z,81.11
2019-01-18T20:15:42.667Z,81.26
2019-01-18T20:19:07.989Z,81.71
2019-01-18T20:21:50.865Z,81.11
2019-01-18T20:24:55.348Z,81.41
2019-01-18T20:27:53.778Z,81.94
2019-01-18T20:31:03.718Z,81.97
2019-01-18T20:34:30.294Z,81.15
2019-01-18T20:37:43.981Z,81.29
2019-01-18T20:40:44.077Z,81.47
2019-01-18T20:44:00.848Z,81.71
2019-01-18T20:47:29.105Z,81.85
2019-01-18T20:50:40.385Z,80.73
2019-01-18T20:53:56.360Z,81.02
2019-01-18T20:57:07.114Z,81.30
2019-01-18T21:00:32.798Z,80.99
2019-01-18T21:03:30.003Z,81.13
2019-01-18T21:06:40.491Z,81.27
2019-01-18T21:09:45.208Z,80.87
2019-01-18T21:13:01.536Z,81.08
2019-01-18T21:16:24.147Z,80.72
2019-01-18T21:19:21.300Z,80.98
2019-01-18T21:22:44.100Z,80.85
2019-01-18T21:25:41.456Z,80.91
2019-01-18T21:28:54.016Z,80.80
2019-01-18T21:32:26.053Z,80.84
2019-01-18T21:35:38.252Z,80.88
2019-01-18T21:38:44.090Z,80.52
2019-01-18T21:42:06.918Z,80.47
2019-01-18T21:45:08.237Z,80.58
2019-01-18T21:48:08.996Z,80.18
2019-01-18T21:51:15.647Z,80.39
2019-01-18T21:54:24.601Z,80.21
2019-01-18T21:57:35.771Z,80.21
2019-01-18T22:00:49.471Z,80.25
2019-01-18T22:03:39.091Z,80.11
2019-01-18T22:06:40.737Z,79.79
2019-01-18T22:10:21.859Z,79.86
2019-01-18T22:13:09.594Z,79.40
2019-01-18T22:16:26.263Z,79.67
2019-01-18T22:19:38.887Z,79.85
2019-01-18T22:22:52.168Z,79.59
2019-01-18T22:26:01.764Z,79.77
2019-01-18T22:29:19.657Z,80.15
2019-01-18T22:32:11.536Z,80.27
2019-01-18T22:34:53.360Z,80.11
2019-01-18T22:37:56.506Z,79.93
2019-01-18T22:41:23.271Z,79.81
2019-01-18T22:44:54.987Z,79.53
2019-01-18T22:47:59.441Z,78.90
2019-01-18T22:51:16.637Z,79.02
2019-01-18T22:54:22.252Z,79.34
2019-01-18T22:57:29.231Z,79.50
2019-01-18T23:01:17.700Z,79.38
2019-01-18T23:04:30.525Z,79.61
2019-01-18T23:07:53.196Z,79.59
2019-01-18T23:11:10.022Z,79.68
2019-01-18T23:14:27.334Z,79.64
2019-01-18T23:17:25.322Z,79.99
2019-01-18T23:20:30.941Z,80.44
2019-01-18T23:23:45.718Z,80.41
2019-01-18T23:27:01.951Z,80.15
2019-01-18T23:29:58.077Z,80.41
2019-01-18T23:32:55.621Z,80.11
2019-01-18T23:35:46.675Z,79.90
2019-01-18T23:38:54.773Z,80.06
2019-01-18T23:41:44.749Z,80.10
2019-01-18T23:44:48.321Z,79.95
2019-01-18T23:47:42.067Z,80.07
2019-01-18T23:50:43.166Z,80.40
2019-01-18T23:53:49.674Z,80.49
2019-01-18T23:56:59.798Z,80.25
